»·PEaware :: N333ZX KSBA-KFAT

N333ZX :: KSBA-KFAT

FLIGHT INFORMATION

Flight Status: Arrived
Operator: Privately registered:
United States
More flights under this callsign
Pilot: Judd H. (29974)
Aircraft: SOCATA TBM-900
(TBM9)
More flights by this aircraft type
Origin: KSBA Santa Barbara Mun
United States
Destination: KFAT Fresno Yosemite Intl
United States
More flights between these airports :: More routes between these airports
Route: RZS V183 EHF TTE ALTTA9
File this flight plan on PilotEdge
Remarks:
Altitude:
(Current/Filed)
24,000ft
Speed:
(Current/Filed)
220kts
Departed: 08-Dec-21 05:44 PM
Arrived: 08-Dec-21 06:33 PM
Distance/Time
Traveled:
141nm/0:48
Distance/Time
To Go:
Arrived

Flight Plot

Page will automatically refresh every two minutes.

Flight plan parsing failed; only flown route is shown


Map Options




Map Legend


Flown Route
Filed Route
Departure Airport
Arrival Airport
Navaid (VOR, NDB)
Fix

Horizontal Profiles

Position Reports

Time Latitude Longitude Heading Altitude Ground
Speed
08-Dec-21 17:25 34.423089 -119.836094 161 16ft 0kts
08-Dec-21 17:26 34.423089 -119.836094 161 16ft 0kts
08-Dec-21 17:27 34.423089 -119.836094 161 16ft 0kts
08-Dec-21 17:28 34.423089 -119.836094 161 16ft 0kts
08-Dec-21 17:29 34.423089 -119.836094 161 16ft 0kts
08-Dec-21 17:30 34.423089 -119.836094 161 16ft 0kts
08-Dec-21 17:31 34.423089 -119.836094 161 16ft 0kts
08-Dec-21 17:32 34.423089 -119.836094 161 16ft 0kts
08-Dec-21 17:33 34.423089 -119.836094 161 16ft 0kts
08-Dec-21 17:34 34.423089 -119.836094 161 16ft 0kts
08-Dec-21 17:35 34.423089 -119.836094 161 16ft 0kts
08-Dec-21 17:36 34.423089 -119.836094 161 16ft 0kts
08-Dec-21 17:37 34.423303 -119.837163 330 16ft 5kts
08-Dec-21 17:38 34.425046 -119.837811 347 16ft 8kts
08-Dec-21 17:39 34.426717 -119.837825 71 16ft 5kts
08-Dec-21 17:40 34.426765 -119.836132 90 16ft 4kts
08-Dec-21 17:41 34.426921 -119.834670 28 16ft 4kts
08-Dec-21 17:42 34.427859 -119.835188 270 16ft 7kts
08-Dec-21 17:43 34.429788 -119.869056 280 1135ft 146kts
08-Dec-21 17:44 34.433580 -119.923805 270 2995ft 177kts
08-Dec-21 17:45 34.433966 -119.988201 267 4618ft 176kts
08-Dec-21 17:46 34.432537 -120.042997 268 7010ft 154kts
08-Dec-21 17:48 34.432913 -120.098893 297 7977ft 204kts
08-Dec-21 17:49 34.483949 -120.080616 47 7994ft 241kts
08-Dec-21 17:50 34.490978 -120.013010 84 10430ft 177kts
08-Dec-21 17:51 34.495153 -119.953899 82 12796ft 180kts
08-Dec-21 17:52 34.499984 -119.892149 81 14834ft 189kts
08-Dec-21 17:53 34.505097 -119.827142 79 16842ft 200kts
08-Dec-21 17:54 34.517859 -119.764586 23 19085ft 184kts
08-Dec-21 17:55 34.562421 -119.734764 20 21232ft 185kts
08-Dec-21 17:56 34.607317 -119.704212 20 23151ft 187kts
08-Dec-21 17:57 34.655888 -119.671182 21 24062ft 235kts
08-Dec-21 17:58 34.718856 -119.628028 22 24029ft 274kts
08-Dec-21 17:59 34.786837 -119.581341 22 24022ft 284kts
08-Dec-21 18:00 34.856092 -119.533708 22 24020ft 286kts
08-Dec-21 18:01 34.924694 -119.486445 22 24019ft 282kts
08-Dec-21 18:02 34.992780 -119.439458 22 24019ft 281kts
08-Dec-21 18:03 35.060832 -119.392407 22 24019ft 281kts
08-Dec-21 18:04 35.128804 -119.345319 23 24024ft 281kts
08-Dec-21 18:05 35.196952 -119.298000 23 24022ft 282kts
08-Dec-21 18:06 35.265221 -119.250501 23 24022ft 282kts
08-Dec-21 18:07 35.333683 -119.202835 23 23598ft 295kts
08-Dec-21 18:08 35.408627 -119.150485 22 22233ft 319kts
08-Dec-21 18:09 35.486774 -119.096862 14 20739ft 319kts
08-Dec-21 18:09 35.557602 -119.084249 2 19545ft 308kts
08-Dec-21 18:11 35.656490 -119.066733 2 17941ft 308kts
08-Dec-21 18:12 35.740392 -119.051750 3 16597ft 301kts
08-Dec-21 18:13 35.822563 -119.037057 4 15286ft 298kts
08-Dec-21 18:13 35.890632 -119.024861 4 14197ft 298kts
08-Dec-21 18:14 35.964830 -119.045394 334 13972ft 267kts
08-Dec-21 18:16 36.044149 -119.085599 334 13965ft 261kts
08-Dec-21 18:17 36.111606 -119.118660 338 13964ft 261kts
08-Dec-21 18:17 36.169293 -119.142005 338 13966ft 262kts
08-Dec-21 18:18 36.238359 -119.172438 336 12655ft 266kts
08-Dec-21 18:19 36.307707 -119.205339 336 11147ft 267kts
08-Dec-21 18:20 36.375699 -119.241897 332 9646ft 268kts
08-Dec-21 18:21 36.442661 -119.277888 336 8634ft 260kts
08-Dec-21 18:22 36.506650 -119.308709 336 7534ft 232kts
08-Dec-21 18:23 36.559755 -119.347793 302 5916ft 226kts
08-Dec-21 18:24 36.602680 -119.404170 305 4156ft 213kts
08-Dec-21 18:25 36.630530 -119.462356 296 2739ft 163kts
08-Dec-21 18:26 36.652210 -119.499295 312 1876ft 117kts
08-Dec-21 18:27 36.675086 -119.539427 297 1603ft 184kts
08-Dec-21 18:28 36.706238 -119.592778 302 2078ft 192kts
08-Dec-21 18:29 36.737279 -119.648503 308 1624ft 178kts
08-Dec-21 18:30 36.757234 -119.683200 303 985ft 98kts
08-Dec-21 18:31 36.773140 -119.711023 307 333ft 69kts
08-Dec-21 18:32 36.776470 -119.718102 271 333ft 6kts
08-Dec-21 18:33 36.776478 -119.718396 271 333ft 4kts
08-Dec-21 18:34 36.775895 -119.720781 189 332ft 5kts
08-Dec-21 18:35 36.774120 -119.719277 125 331ft 11kts
08-Dec-21 18:36 36.771440 -119.714610 127 330ft 20kts
08-Dec-21 18:37 36.768289 -119.709065 125 330ft 19kts
08-Dec-21 18:38 36.766358 -119.707547 183 331ft 5kts
08-Dec-21 18:39 36.766057 -119.708257 315 331ft 0kts
08-Dec-21 18:40 36.766057 -119.708257 315 331ft 0kts
08-Dec-21 18:41 36.766057 -119.708257 315 331ft 0kts

Navigation Log

Ident Type
Flight plan parsing failed, navigation log unavailable